createdAt,value
2019-04-04T00:00:11.758Z,8.68
2019-04-04T00:05:17.856Z,8.18
2019-04-04T00:10:23.320Z,8.77
2019-04-04T00:15:28.985Z,9.07
2019-04-04T00:20:34.477Z,8.77
2019-04-04T00:25:40.419Z,9.03
2019-04-04T00:30:48.269Z,8.73
2019-04-04T00:35:53.345Z,8.63
2019-04-04T00:40:58.854Z,8.63
2019-04-04T00:46:04.609Z,8.60
2019-04-04T00:51:09.851Z,9.13
2019-04-04T00:56:16.056Z,8.83
2019-04-04T01:01:26.094Z,8.73
2019-04-04T01:06:33.475Z,9.70
2019-04-04T01:11:37.484Z,9.27
2019-04-04T01:16:43.088Z,9.53
2019-04-04T01:21:48.474Z,10.07
2019-04-04T01:26:54.462Z,10.40
2019-04-04T01:32:00.205Z,10.20
2019-04-04T01:37:06.069Z,9.47
2019-04-04T01:42:11.549Z,10.40
2019-04-04T01:47:17.689Z,10.13
2019-04-04T01:52:27.726Z,9.60
2019-04-04T01:57:31.716Z,10.07
2019-04-04T02:02:37.281Z,10.83
2019-04-04T02:07:42.579Z,10.13
2019-04-04T02:12:47.906Z,9.67
2019-04-04T02:17:53.526Z,10.13
2019-04-04T02:23:01.170Z,9.93
2019-04-04T02:28:08.878Z,9.37
2019-04-04T02:33:14.869Z,10.03
2019-04-04T02:38:20.218Z,9.50
2019-04-04T02:43:28.390Z,9.30
2019-04-04T02:48:33.803Z,9.30
2019-04-04T02:53:39.072Z,9.90
2019-04-04T02:58:46.346Z,10.13
2019-04-04T03:03:52.923Z,10.07
2019-04-04T03:08:58.419Z,10.87
2019-04-04T03:14:04.682Z,10.47
2019-04-04T03:19:11.336Z,12.85
2019-04-04T03:24:16.953Z,13.17
2019-04-04T03:29:22.428Z,11.03
2019-04-04T03:34:27.801Z,10.80
2019-04-04T03:39:33.344Z,11.50
2019-04-04T03:44:38.697Z,10.45
2019-04-04T03:49:44.169Z,10.87
2019-04-04T03:54:49.615Z,11.40
2019-04-04T03:59:55.923Z,10.77
2019-04-04T04:05:02.188Z,10.50
2019-04-04T04:10:07.829Z,10.77
2019-04-04T04:15:13.338Z,10.70
2019-04-04T04:20:20.414Z,11.00
2019-04-04T04:25:25.866Z,9.80
2019-04-04T04:30:31.122Z,11.23
2019-04-04T04:35:40.762Z,10.17
2019-04-04T04:40:46.912Z,10.90
2019-04-04T04:45:51.381Z,10.30
2019-04-04T04:50:56.765Z,10.57
2019-04-04T04:56:03.350Z,12.07
2019-04-04T05:01:08.559Z,12.70
2019-04-04T05:06:14.265Z,10.50
2019-04-04T05:11:19.838Z,11.28
2019-04-04T05:16:25.279Z,12.43
2019-04-04T05:21:33.886Z,11.50
2019-04-04T05:26:38.720Z,11.28
2019-04-04T05:31:44.452Z,10.43
2019-04-04T05:36:49.820Z,10.13
2019-04-04T05:41:55.317Z,10.97
2019-04-04T05:47:00.946Z,10.90
2019-04-04T05:52:08.854Z,10.80
2019-04-04T05:57:13.353Z,10.43
2019-04-04T06:02:18.756Z,12.40
2019-04-04T06:07:24.622Z,11.77
2019-04-04T06:12:29.869Z,11.70
2019-04-04T06:17:35.128Z,11.30
2019-04-04T06:22:40.684Z,11.73
2019-04-04T06:27:45.874Z,12.87
2019-04-04T06:32:53.375Z,11.43
2019-04-04T06:37:59.111Z,12.47
2019-04-04T06:43:10.555Z,12.65
2019-04-04T06:48:12.608Z,11.12
2019-04-04T06:53:18.181Z,10.63
2019-04-04T06:58:23.384Z,11.47
2019-04-04T07:03:28.479Z,11.80
2019-04-04T07:08:34.041Z,10.90
2019-04-04T07:13:42.636Z,11.80
2019-04-04T07:18:46.845Z,14.43
2019-04-04T07:23:52.167Z,12.00
2019-04-04T07:28:57.540Z,10.63
2019-04-04T07:34:03.465Z,11.07
2019-04-04T07:39:12.164Z,11.73
2019-04-04T07:44:16.220Z,11.63
2019-04-04T07:49:23.243Z,12.47
2019-04-04T07:54:31.766Z,14.03
2019-04-04T07:59:36.874Z,11.80
2019-04-04T08:04:43.099Z,12.70
2019-04-04T08:09:48.486Z,13.33
2019-04-04T08:14:54.034Z,12.73
2019-04-04T08:20:00.196Z,13.30
2019-04-04T08:25:06.094Z,11.63
2019-04-04T08:30:12.080Z,12.73
2019-04-04T08:35:17.627Z,14.23
2019-04-04T08:40:23.193Z,15.87
2019-04-04T08:45:29.115Z,12.50
2019-04-04T08:50:34.909Z,11.90
2019-04-04T08:55:40.454Z,13.10
2019-04-04T09:00:46.059Z,12.20
2019-04-04T09:05:51.762Z,20.40
2019-04-04T09:10:57.504Z,12.80
2019-04-04T09:16:03.039Z,12.47
2019-04-04T09:21:08.799Z,13.43
2019-04-04T09:26:14.313Z,13.50
2019-04-04T09:31:19.802Z,12.10
2019-04-04T09:36:25.112Z,12.17
2019-04-04T09:41:30.660Z,12.63
2019-04-04T09:46:36.352Z,12.83
2019-04-04T09:51:41.556Z,12.60
2019-04-04T09:56:47.155Z,14.13
2019-04-04T10:01:52.885Z,16.37
2019-04-04T10:06:58.244Z,13.27
2019-04-04T10:12:05.068Z,13.00
2019-04-04T10:17:10.640Z,14.03
2019-04-04T10:22:16.205Z,14.23
2019-04-04T10:27:22.999Z,13.43
2019-04-04T10:32:28.358Z,13.57
2019-04-04T10:37:33.629Z,13.87
2019-04-04T10:42:39.085Z,15.00
2019-04-04T10:47:44.745Z,14.17
2019-04-04T10:52:50.095Z,13.50
2019-04-04T10:57:55.467Z,14.83
2019-04-04T11:03:00.818Z,13.37
2019-04-04T11:08:06.272Z,14.70
2019-04-04T11:13:11.599Z,14.50
2019-04-04T11:18:16.902Z,14.25
2019-04-04T11:23:22.556Z,14.33
2019-04-04T11:28:27.928Z,14.63
2019-04-04T11:33:34.580Z,13.83
2019-04-04T11:38:40.311Z,14.67
2019-04-04T11:43:45.773Z,13.50
2019-04-04T11:48:51.204Z,14.40
2019-04-04T11:54:00.345Z,14.23
2019-04-04T11:59:08.007Z,14.40
2019-04-04T12:04:12.822Z,14.97
2019-04-04T12:09:18.205Z,13.15
2019-04-04T12:14:23.708Z,13.70
2019-04-04T12:19:29.151Z,12.97
2019-04-04T12:24:34.750Z,13.07
2019-04-04T12:29:40.217Z,13.97
2019-04-04T12:34:46.879Z,16.57
2019-04-04T12:39:52.599Z,14.33
2019-04-04T12:44:57.841Z,13.13
2019-04-04T12:50:03.243Z,13.83
2019-04-04T12:55:09.359Z,13.50
2019-04-04T13:00:15.059Z,15.67
2019-04-04T13:05:21.115Z,14.37
2019-04-04T13:10:32.845Z,14.13
2019-04-04T13:15:33.984Z,13.70
2019-04-04T13:20:39.325Z,14.43
2019-04-04T13:25:44.701Z,13.20
2019-04-04T13:30:50.243Z,14.90
2019-04-04T13:35:56.216Z,16.27
2019-04-04T13:41:01.743Z,14.17
2019-04-04T13:46:07.308Z,13.07
2019-04-04T13:51:12.502Z,13.03
2019-04-04T13:56:17.886Z,13.23
2019-04-04T14:01:25.231Z,13.70
2019-04-04T14:06:30.251Z,13.00
2019-04-04T14:11:35.579Z,13.70
2019-04-04T14:16:40.844Z,13.87
2019-04-04T14:21:46.400Z,13.10
2019-04-04T14:26:51.874Z,13.57
2019-04-04T14:31:57.604Z,13.30
2019-04-04T14:37:03.133Z,12.73
2019-04-04T14:42:08.526Z,14.93
2019-04-04T14:47:16.232Z,17.90
2019-04-04T14:52:24.131Z,13.40
2019-04-04T14:57:28.417Z,12.37
2019-04-04T15:02:33.871Z,13.20
2019-04-04T15:07:39.237Z,15.23
2019-04-04T15:12:44.892Z,13.20
2019-04-04T15:17:50.071Z,13.90
2019-04-04T15:22:55.519Z,13.83
2019-04-04T15:28:00.890Z,12.70
2019-04-04T15:33:06.330Z,12.93
2019-04-04T15:38:12.001Z,11.85
2019-04-04T15:43:17.443Z,19.53
2019-04-04T15:48:23.070Z,12.70
2019-04-04T15:53:28.385Z,12.90
2019-04-04T15:58:33.935Z,12.67
2019-04-04T16:03:39.183Z,12.37
2019-04-04T16:08:44.465Z,13.00
2019-04-04T16:13:49.690Z,12.13
2019-04-04T16:18:55.145Z,11.97
2019-04-04T16:24:00.471Z,12.17
2019-04-04T16:29:06.088Z,12.10
2019-04-04T16:34:11.460Z,12.35
2019-04-04T16:39:17.142Z,12.15
2019-04-04T16:44:22.587Z,12.47
2019-04-04T16:49:27.689Z,11.90
2019-04-04T16:54:33.207Z,13.00
2019-04-04T16:59:38.714Z,11.90
2019-04-04T17:04:44.245Z,13.03
2019-04-04T17:09:50.396Z,11.63
2019-04-04T17:14:55.888Z,11.87
2019-04-04T17:20:01.314Z,13.23
2019-04-04T17:25:09.137Z,12.30
2019-04-04T17:30:16.760Z,13.40
2019-04-04T17:35:22.412Z,12.87
2019-04-04T17:40:28.326Z,12.20
2019-04-04T17:45:34.624Z,12.07
2019-04-04T17:50:40.189Z,13.23
2019-04-04T17:55:46.235Z,12.90
2019-04-04T18:00:52.183Z,16.23
2019-04-04T18:05:58.878Z,13.33
2019-04-04T18:11:05.266Z,13.63
2019-04-04T18:16:11.101Z,12.55
2019-04-04T18:21:16.686Z,13.93
2019-04-04T18:26:21.893Z,12.85
2019-04-04T18:31:27.170Z,13.10
2019-04-04T18:36:32.539Z,12.33
2019-04-04T18:41:37.918Z,12.43
2019-04-04T18:46:43.278Z,12.20
2019-04-04T18:51:48.572Z,11.57
2019-04-04T18:56:54.207Z,12.07
2019-04-04T19:01:59.605Z,12.27
2019-04-04T19:07:04.935Z,11.20
2019-04-04T19:12:10.476Z,11.00
2019-04-04T19:17:16.139Z,11.57
2019-04-04T19:22:25.145Z,11.13
2019-04-04T19:27:30.672Z,10.93
2019-04-04T19:32:36.027Z,11.63
2019-04-04T19:37:41.767Z,11.80
2019-04-04T19:42:47.351Z,11.07
2019-04-04T19:47:52.809Z,11.27
2019-04-04T19:52:58.165Z,11.23
2019-04-04T19:58:04.857Z,12.60
2019-04-04T20:03:10.054Z,10.60
2019-04-04T20:08:15.717Z,10.63
2019-04-04T20:13:30.208Z,10.47
2019-04-04T20:18:27.821Z,9.70
2019-04-04T20:23:33.695Z,10.73
2019-04-04T20:28:40.223Z,10.33
2019-04-04T20:33:45.947Z,12.00
2019-04-04T20:38:51.222Z,9.87
2019-04-04T20:43:56.326Z,10.33
2019-04-04T20:49:02.659Z,10.67
2019-04-04T20:54:07.971Z,10.17
2019-04-04T20:59:13.259Z,11.20
2019-04-04T21:04:18.673Z,10.13
2019-04-04T21:09:24.334Z,10.00
2019-04-04T21:14:30.264Z,10.00
2019-04-04T21:19:35.922Z,10.23
2019-04-04T21:24:41.595Z,10.50
2019-04-04T21:29:52.011Z,10.33
2019-04-04T21:34:57.543Z,11.33
2019-04-04T21:40:02.998Z,10.60
2019-04-04T21:45:09.199Z,10.73
2019-04-04T21:50:15.305Z,11.00
2019-04-04T21:55:20.697Z,13.10
2019-04-04T22:00:27.823Z,11.97
2019-04-04T22:05:34.891Z,12.07
2019-04-04T22:10:40.872Z,12.07
2019-04-04T22:15:46.334Z,11.13
2019-04-04T22:20:51.594Z,12.33
2019-04-04T22:25:57.050Z,12.93
2019-04-04T22:31:02.515Z,13.83
2019-04-04T22:36:08.024Z,13.10
2019-04-04T22:41:13.259Z,12.87
2019-04-04T22:46:18.446Z,15.30
2019-04-04T22:51:23.789Z,13.27
2019-04-04T22:56:29.463Z,12.43
2019-04-04T23:01:34.963Z,12.87
2019-04-04T23:06:40.844Z,12.20
2019-04-04T23:11:46.426Z,12.10
2019-04-04T23:16:51.976Z,12.88
2019-04-04T23:21:57.337Z,12.67
2019-04-04T23:27:02.987Z,13.80
2019-04-04T23:32:08.465Z,13.30
2019-04-04T23:37:13.857Z,13.03
2019-04-04T23:42:19.281Z,14.90
2019-04-04T23:47:24.743Z,30.00
2019-04-04T23:52:30.108Z,27.17
2019-04-04T23:57:35.574Z,27.20
